Time;durP1;ratioP1;P1;durP2;ratioP2;P2;SDS_P1;SDS_P2;PMS_P1;PMS_P2;Temp;Humidity;BMP_temperature;BMP_pressure;BME280_temperature;BME280_humidity;BME280_pressure;Samples;Min_cycle;Max_cycle;Signal;HPM_P1;HPM_P2
2022/05/28 00:01:51;;;;;;;25.77;10.50;;;;;;;;;;6316229;28;19923;-72
2022/05/28 00:04:53;;;;;;;19.48;8.50;;;;;;;;;;6313998;28;20319;-73
2022/05/28 00:07:55;;;;;;;20.85;10.32;;;;;;;;;;6310242;28;20063;-71
2022/05/28 00:10:59;;;;;;;17.25;9.02;;;;;;;;;;6314113;28;20060;-73
2022/05/28 00:14:01;;;;;;;15.20;9.18;;;;;;;;;;6312873;28;20146;-72
2022/05/28 00:17:03;;;;;;;20.45;8.35;;;;;;;;;;6312801;28;20048;-73
2022/05/28 00:20:07;;;;;;;15.52;8.32;;;;;;;;;;6312775;28;20048;-72
2022/05/28 00:23:09;;;;;;;32.28;9.43;;;;;;;;;;6315693;28;20074;-72
2022/05/28 00:26:12;;;;;;;16.48;8.95;;;;;;;;;;6312690;28;20056;-72
2022/05/28 00:29:13;;;;;;;;;;;;;;;;;;6311721;28;20052;-73
2022/05/28 00:32:15;;;;;;;15.73;8.60;;;;;;;;;;6317099;28;19932;-73
2022/05/28 00:35:18;;;;;;;19.55;15.50;;;;;;;;;;6317354;28;20106;-74
2022/05/28 00:38:20;;;;;;;22.38;13.82;;;;;;;;;;6312677;28;20452;-72
2022/05/28 00:41:23;;;;;;;21.67;12.20;;;;;;;;;;6310337;28;20258;-72
2022/05/28 00:44:25;;;;;;;19.50;11.10;;;;;;;;;;6315464;28;20055;-73
2022/05/28 00:47:26;;;;;;;;;;;;;;;;;;6320789;28;20276;-73
2022/05/28 00:50:28;;;;;;;47.55;27.67;;;;;;;;;;6314308;28;20214;-74
2022/05/28 00:53:30;;;;;;;18.65;12.98;;;;;;;;;;6313327;28;20074;-73
2022/05/28 00:56:33;;;;;;;16.17;11.70;;;;;;;;;;6313019;28;20051;-73
2022/05/28 00:59:34;;;;;;;35.22;19.27;;;;;;;;;;6316230;28;20087;-73
2022/05/28 01:02:44;;;;;;;26.17;16.83;;;;;;;;;;6317916;28;20052;-72
2022/05/28 01:05:49;;;;;;;22.75;16.08;;;;;;;;;;6316094;28;20048;-72
2022/05/28 01:08:55;;;;;;;27.55;15.05;;;;;;;;;;6312564;28;20274;-72
2022/05/28 01:12:10;;;;;;;23.63;13.93;;;;;;;;;;6318615;28;20055;-71
2022/05/28 01:15:16;;;;;;;24.30;16.05;;;;;;;;;;6312747;28;20048;-72
2022/05/28 01:18:21;;;;;;;43.15;18.20;;;;;;;;;;6317568;28;20043;-71
2022/05/28 01:21:28;;;;;;;67.72;20.23;;;;;;;;;;6314739;28;20064;-70
2022/05/28 01:24:37;;;;;;;81.75;19.70;;;;;;;;;;6320712;28;20120;-71
2022/05/28 01:27:43;;;;;;;60.45;19.98;;;;;;;;;;6318177;28;20062;-71
2022/05/28 01:30:45;;;;;;;45.53;17.48;;;;;;;;;;6318733;27;20247;-70
2022/05/28 01:33:47;;;;;;;48.83;18.13;;;;;;;;;;6324724;28;20277;-71
2022/05/28 01:36:49;;;;;;;42.00;17.88;;;;;;;;;;6322235;28;20383;-72
2022/05/28 01:39:52;;;;;;;56.05;21.52;;;;;;;;;;6315208;28;20064;-71
2022/05/28 01:42:57;;;;;;;41.08;17.55;;;;;;;;;;6320430;28;20078;-72
2022/05/28 01:45:59;;;;;;;31.65;16.13;;;;;;;;;;6315153;28;20051;-71
2022/05/28 01:49:01;;;;;;;37.90;16.95;;;;;;;;;;6317722;27;20055;-71
2022/05/28 01:52:04;;;;;;;98.47;24.73;;;;;;;;;;6316562;28;20066;-70
2022/05/28 01:55:07;;;;;;;81.00;21.48;;;;;;;;;;6316526;27;20041;-72
2022/05/28 01:58:10;;;;;;;;;;;;;;;;;;6319444;28;20150;-71
2022/05/28 02:01:12;;;;;;;51.60;15.93;;;;;;;;;;6317617;28;19953;-71
2022/05/28 02:04:14;;;;;;;47.90;14.43;;;;;;;;;;6318834;28;20539;-70
2022/05/28 02:07:18;;;;;;;34.92;13.05;;;;;;;;;;6318617;28;20048;-71
2022/05/28 02:10:21;;;;;;;38.20;13.55;;;;;;;;;;6317539;28;20392;-71
2022/05/28 02:13:26;;;;;;;31.88;13.70;;;;;;;;;;6317555;28;20060;-71
2022/05/28 02:16:35;;;;;;;36.95;12.27;;;;;;;;;;6319565;27;20076;-71
2022/05/28 02:19:44;;;;;;;44.30;12.60;;;;;;;;;;6317887;28;20115;-71
2022/05/28 02:22:52;;;;;;;23.77;9.13;;;;;;;;;;6323853;28;20060;-71
2022/05/28 02:25:58;;;;;;;24.90;9.20;;;;;;;;;;6304556;28;20052;-71
2022/05/28 02:29:02;;;;;;;27.88;10.00;;;;;;;;;;6315870;28;20247;-71
2022/05/28 02:32:13;;;;;;;23.38;10.25;;;;;;;;;;6323016;28;20110;-71
2022/05/28 02:35:14;;;;;;;31.98;10.15;;;;;;;;;;6323103;28;20044;-71
2022/05/28 02:38:17;;;;;;;32.42;10.52;;;;;;;;;;6314356;28;20048;-69
2022/05/28 02:41:19;;;;;;;31.90;10.27;;;;;;;;;;6314067;28;20146;-70
2022/05/28 02:44:23;;;;;;;32.58;10.15;;;;;;;;;;6320957;28;20058;-71
2022/05/28 02:47:24;;;;;;;63.10;12.95;;;;;;;;;;6321572;28;20044;-70
2022/05/28 02:50:27;;;;;;;41.42;13.52;;;;;;;;;;6318454;28;20075;-70
2022/05/28 02:53:28;;;;;;;30.95;11.75;;;;;;;;;;6314375;27;20380;-71
2022/05/28 02:56:30;;;;;;;18.85;9.75;;;;;;;;;;6317857;28;20056;-70
2022/05/28 02:59:33;;;;;;;16.30;9.20;;;;;;;;;;6311292;28;20097;-70
2022/05/28 03:02:35;;;;;;;24.50;9.63;;;;;;;;;;6317784;28;20136;-70
2022/05/28 03:05:36;;;;;;;17.02;9.25;;;;;;;;;;6312673;28;20587;-70
2022/05/28 03:08:38;;;;;;;20.27;8.50;;;;;;;;;;6315246;28;20056;-70
2022/05/28 03:11:40;;;;;;;18.17;9.38;;;;;;;;;;6320273;28;20109;-70
2022/05/28 03:14:43;;;;;;;14.82;7.75;;;;;;;;;;6321166;28;20052;-70
2022/05/28 03:17:46;;;;;;;16.33;7.57;;;;;;;;;;6316969;28;20047;-70
2022/05/28 03:20:48;;;;;;;15.55;7.85;;;;;;;;;;6317385;28;20067;-70
2022/05/28 03:23:50;;;;;;;18.85;7.95;;;;;;;;;;6315623;28;20059;-70
2022/05/28 03:26:54;;;;;;;15.75;7.70;;;;;;;;;;6316966;28;20393;-70
2022/05/28 03:29:57;;;;;;;16.38;7.97;;;;;;;;;;6318099;28;20134;-71
2022/05/28 03:32:58;;;;;;;12.13;6.68;;;;;;;;;;6323437;28;20380;-70
2022/05/28 03:36:00;;;;;;;12.23;6.38;;;;;;;;;;6314852;28;20106;-70
2022/05/28 03:39:02;;;;;;;10.70;6.80;;;;;;;;;;6319352;28;20058;-69
2022/05/28 03:42:04;;;;;;;11.18;7.15;;;;;;;;;;6314406;28;20235;-70
2022/05/28 03:45:08;;;;;;;11.68;7.25;;;;;;;;;;6314506;28;20048;-69
2022/05/28 03:48:11;;;;;;;16.95;8.50;;;;;;;;;;6315565;28;20338;-70
2022/05/28 03:51:13;;;;;;;14.73;8.88;;;;;;;;;;6319014;28;20342;-71
2022/05/28 03:54:14;;;;;;;14.82;10.05;;;;;;;;;;6316734;28;20044;-70
2022/05/28 03:57:23;;;;;;;15.43;10.60;;;;;;;;;;6315414;28;20055;-70
2022/05/28 04:00:26;;;;;;;18.83;11.18;;;;;;;;;;6314111;28;20052;-70
2022/05/28 04:03:28;;;;;;;18.02;11.65;;;;;;;;;;6316142;28;20056;-71
2022/05/28 04:06:30;;;;;;;18.38;12.93;;;;;;;;;;6316162;28;20056;-70
2022/05/28 04:09:31;;;;;;;18.00;11.50;;;;;;;;;;6313868;28;20048;-70
2022/05/28 04:12:33;;;;;;;17.65;11.45;;;;;;;;;;6314779;28;20040;-70
2022/05/28 04:15:36;;;;;;;20.67;12.07;;;;;;;;;;6314883;28;20051;-70
2022/05/28 04:18:38;;;;;;;18.63;12.23;;;;;;;;;;6317191;28;20056;-70
2022/05/28 04:21:39;;;;;;;17.25;11.68;;;;;;;;;;6315621;28;20048;-69
2022/05/28 04:24:41;;;;;;;16.88;11.50;;;;;;;;;;6311808;28;20313;-71
2022/05/28 04:27:43;;;;;;;14.48;11.38;;;;;;;;;;6312490;28;20090;-71
2022/05/28 04:30:46;;;;;;;17.48;12.30;;;;;;;;;;6315878;28;20058;-71
2022/05/28 04:33:47;;;;;;;18.10;12.73;;;;;;;;;;6316537;28;20076;-70
2022/05/28 04:36:49;;;;;;;17.13;12.77;;;;;;;;;;6316700;27;20047;-70
2022/05/28 04:39:51;;;;;;;26.35;13.48;;;;;;;;;;6308815;28;20057;-70
2022/05/28 04:42:52;;;;;;;19.80;12.65;;;;;;;;;;6316014;28;20053;-71
2022/05/28 04:45:55;;;;;;;20.70;12.60;;;;;;;;;;6312095;27;20280;-70
2022/05/28 04:48:57;;;;;;;21.33;13.05;;;;;;;;;;6318236;28;20105;-70
2022/05/28 04:51:59;;;;;;;18.65;12.68;;;;;;;;;;6311609;28;20220;-70
2022/05/28 04:55:01;;;;;;;19.75;14.07;;;;;;;;;;6319619;28;20044;-70
2022/05/28 04:58:02;;;;;;;21.95;13.00;;;;;;;;;;6318944;27;20060;-70
2022/05/28 05:01:05;;;;;;;16.77;13.18;;;;;;;;;;6322697;28;20062;-70
2022/05/28 05:04:07;;;;;;;25.13;14.10;;;;;;;;;;6320832;28;20044;-70
2022/05/28 05:07:08;;;;;;;20.95;13.35;;;;;;;;;;6318838;28;20047;-70
2022/05/28 05:10:11;;;;;;;21.50;13.50;;;;;;;;;;6317275;28;20052;-70
2022/05/28 05:13:13;;;;;;;25.63;14.15;;;;;;;;;;6323933;28;20339;-70
2022/05/28 05:16:18;;;;;;;20.83;14.00;;;;;;;;;;6322137;28;20044;-70
2022/05/28 05:19:19;;;;;;;16.85;12.85;;;;;;;;;;6318426;28;20048;-70
2022/05/28 05:22:21;;;;;;;24.65;13.57;;;;;;;;;;6317464;28;20102;-70
2022/05/28 05:25:24;;;;;;;20.05;13.30;;;;;;;;;;6319149;28;20063;-70
2022/05/28 05:28:25;;;;;;;20.83;13.03;;;;;;;;;;6317213;28;20275;-70
2022/05/28 05:31:28;;;;;;;24.98;13.73;;;;;;;;;;6324806;28;20066;-70
2022/05/28 05:34:30;;;;;;;19.60;13.43;;;;;;;;;;6318914;28;20056;-70
2022/05/28 05:37:32;;;;;;;22.30;13.10;;;;;;;;;;6314818;28;20155;-70
2022/05/28 05:40:34;;;;;;;22.05;13.20;;;;;;;;;;6310352;28;20051;-70
2022/05/28 05:43:36;;;;;;;21.30;12.97;;;;;;;;;;6314600;28;20056;-70
2022/05/28 05:46:41;;;;;;;28.00;13.80;;;;;;;;;;6314562;27;20052;-70
2022/05/28 05:49:42;;;;;;;21.65;11.82;;;;;;;;;;6314938;28;20050;-70
2022/05/28 05:52:44;;;;;;;22.95;11.48;;;;;;;;;;6312086;28;20048;-70
2022/05/28 05:55:46;;;;;;;23.42;12.55;;;;;;;;;;6311885;28;20046;-70
2022/05/28 05:58:48;;;;;;;19.45;11.57;;;;;;;;;;6314608;28;20522;-70
2022/05/28 06:01:51;;;;;;;26.88;11.80;;;;;;;;;;6315874;28;20049;-70
2022/05/28 06:04:53;;;;;;;20.17;11.90;;;;;;;;;;6316045;27;20056;-70
2022/05/28 06:07:55;;;;;;;25.05;11.82;;;;;;;;;;6320949;27;20153;-70
2022/05/28 06:10:57;;;;;;;18.90;11.60;;;;;;;;;;6325671;28;20047;-71
2022/05/28 06:13:58;;;;;;;17.80;11.90;;;;;;;;;;6317830;27;20064;-70
2022/05/28 06:17:01;;;;;;;19.85;10.60;;;;;;;;;;6319875;27;20403;-71
2022/05/28 06:20:05;;;;;;;22.02;11.45;;;;;;;;;;6316635;28;20061;-71
2022/05/28 06:23:06;;;;;;;;;;;;;;;;;;6317153;28;20204;-71
2022/05/28 06:26:08;;;;;;;19.00;10.75;;;;;;;;;;6321062;27;19924;-72
2022/05/28 06:29:10;;;;;;;19.23;11.27;;;;;;;;;;6317333;28;20044;-70
2022/05/28 06:32:13;;;;;;;16.42;10.90;;;;;;;;;;6325897;28;20044;-70
2022/05/28 06:35:15;;;;;;;19.08;11.70;;;;;;;;;;6322783;28;20052;-70
2022/05/28 06:38:16;;;;;;;18.20;11.05;;;;;;;;;;6324146;28;20040;-72
2022/05/28 06:41:18;;;;;;;20.17;11.73;;;;;;;;;;6319004;28;20064;-70
2022/05/28 06:44:20;;;;;;;18.98;11.95;;;;;;;;;;6317326;27;20829;-73
2022/05/28 06:47:23;;;;;;;18.17;12.50;;;;;;;;;;6319716;28;20353;-70
2022/05/28 06:53:58;;;;;;;18.30;13.30;;;;;;;;;;6277615;28;20098;-73
2022/05/28 06:57:00;;;;;;;24.02;12.90;;;;;;;;;;6273097;28;20045;-72
2022/05/28 07:00:01;;;;;;;19.98;12.45;;;;;;;;;;6271521;28;20056;-72
2022/05/28 07:03:05;;;;;;;24.60;13.07;;;;;;;;;;6273693;28;20057;-73
2022/05/28 07:06:07;;;;;;;17.70;13.00;;;;;;;;;;6272791;28;20052;-71
2022/05/28 07:09:09;;;;;;;23.35;12.80;;;;;;;;;;6279226;28;20053;-72
2022/05/28 07:12:11;;;;;;;23.27;11.40;;;;;;;;;;6276375;28;20061;-72
2022/05/28 07:15:13;;;;;;;23.67;12.23;;;;;;;;;;6271400;28;20057;-72
2022/05/28 07:18:17;;;;;;;25.67;12.83;;;;;;;;;;6273914;28;20045;-73
2022/05/28 07:21:18;;;;;;;;;;;;;;;;;;6273987;28;20466;-70
2022/05/28 07:24:20;;;;;;;16.05;11.43;;;;;;;;;;6290677;28;19981;-71
2022/05/28 07:27:22;;;;;;;22.05;10.75;;;;;;;;;;6316107;27;20251;-71
2022/05/28 07:30:24;;;;;;;24.02;10.85;;;;;;;;;;6314195;28;20067;-71
2022/05/28 07:33:27;;;;;;;21.23;10.07;;;;;;;;;;6316536;28;20046;-71
2022/05/28 07:36:31;;;;;;;15.77;10.07;;;;;;;;;;6314533;28;20060;-71
2022/05/28 07:39:33;;;;;;;16.23;9.95;;;;;;;;;;6316279;28;20063;-71
2022/05/28 07:42:34;;;;;;;18.40;9.73;;;;;;;;;;6318367;28;20081;-71
2022/05/28 07:45:38;;;;;;;17.00;8.98;;;;;;;;;;6313877;28;20044;-70
2022/05/28 07:48:41;;;;;;;13.00;9.25;;;;;;;;;;6316192;28;20276;-71
2022/05/28 07:51:43;;;;;;;18.30;10.07;;;;;;;;;;6318282;28;20100;-71
2022/05/28 07:54:44;;;;;;;18.50;10.63;;;;;;;;;;6318350;28;20112;-71
2022/05/28 07:57:46;;;;;;;21.00;9.98;;;;;;;;;;6314161;28;21205;-71
2022/05/28 08:00:49;;;;;;;14.88;9.30;;;;;;;;;;6315129;28;20048;-71
2022/05/28 08:03:52;;;;;;;20.27;10.60;;;;;;;;;;6319176;28;20068;-71
2022/05/28 08:06:54;;;;;;;15.75;10.10;;;;;;;;;;6317375;28;20048;-71
2022/05/28 08:09:56;;;;;;;19.35;10.45;;;;;;;;;;6314317;28;20250;-71
2022/05/28 08:13:01;;;;;;;18.60;11.33;;;;;;;;;;6315433;28;20273;-71
2022/05/28 08:16:03;;;;;;;19.17;12.02;;;;;;;;;;6316535;28;20067;-70
2022/05/28 08:19:06;;;;;;;17.77;10.30;;;;;;;;;;6316460;28;20090;-71
2022/05/28 08:25:26;;;;;;;20.60;12.05;;;;;;;;;;6314193;28;20052;-70
2022/05/28 08:28:28;;;;;;;14.80;9.70;;;;;;;;;;6315170;28;20154;-69
2022/05/28 08:31:30;;;;;;;19.38;10.98;;;;;;;;;;6316326;28;20074;-70
2022/05/28 08:34:33;;;;;;;16.35;11.85;;;;;;;;;;6314899;28;20107;-69
2022/05/28 08:37:35;;;;;;;13.18;9.73;;;;;;;;;;6315934;28;20097;-70
2022/05/28 08:40:43;;;;;;;13.23;10.30;;;;;;;;;;6312872;27;20059;-70
2022/05/28 08:43:49;;;;;;;19.45;10.63;;;;;;;;;;6315460;27;20299;-71
2022/05/28 08:46:53;;;;;;;17.40;9.63;;;;;;;;;;6313406;28;20197;-70
2022/05/28 08:49:56;;;;;;;18.88;10.82;;;;;;;;;;6311351;28;20390;-70
2022/05/28 08:53:05;;;;;;;21.13;10.82;;;;;;;;;;6314592;27;20384;-70
2022/05/28 08:56:07;;;;;;;16.35;9.93;;;;;;;;;;6312521;27;20448;-70
2022/05/28 08:59:13;;;;;;;18.15;11.20;;;;;;;;;;6310859;28;20324;-70
2022/05/28 09:02:20;;;;;;;22.15;11.27;;;;;;;;;;6317135;28;20357;-68
2022/05/28 09:05:26;;;;;;;18.48;10.38;;;;;;;;;;6312487;28;20052;-70
2022/05/28 09:08:30;;;;;;;16.00;10.68;;;;;;;;;;6314484;28;20351;-70
2022/05/28 09:11:35;;;;;;;15.98;9.73;;;;;;;;;;6312688;28;20063;-70
2022/05/28 09:14:38;;;;;;;15.52;9.30;;;;;;;;;;6316936;28;20060;-71
2022/05/28 09:17:44;;;;;;;15.20;8.52;;;;;;;;;;6312956;28;20331;-72
2022/05/28 09:20:48;;;;;;;15.73;8.77;;;;;;;;;;6313717;28;20048;-73
2022/05/28 09:24:00;;;;;;;14.43;9.32;;;;;;;;;;6315042;28;20128;-73
2022/05/28 09:27:07;;;;;;;14.55;8.82;;;;;;;;;;6311954;28;20045;-73
2022/05/28 09:30:15;;;;;;;15.55;9.20;;;;;;;;;;6290384;28;20045;-72
2022/05/28 09:33:42;;;;;;;19.30;9.85;;;;;;;;;;6289338;28;20048;-72
2022/05/28 09:36:53;;;;;;;14.40;9.27;;;;;;;;;;6284538;28;20355;-69
2022/05/28 09:40:00;;;;;;;17.77;9.60;;;;;;;;;;6287822;27;20362;-71
2022/05/28 09:43:20;;;;;;;15.65;8.95;;;;;;;;;;6291858;28;20286;-71
2022/05/28 09:46:27;;;;;;;15.15;9.32;;;;;;;;;;6294248;28;20056;-70
2022/05/28 09:49:28;;;;;;;18.08;8.48;;;;;;;;;;6290695;28;20087;-71
2022/05/28 09:52:34;;;;;;;15.90;9.40;;;;;;;;;;6292515;28;20053;-70
2022/05/28 09:55:35;;;;;;;11.48;7.28;;;;;;;;;;6294644;28;20319;-70
2022/05/28 09:58:39;;;;;;;14.52;8.18;;;;;;;;;;6297365;28;20048;-69
2022/05/28 10:01:52;;;;;;;14.75;7.07;;;;;;;;;;6292160;28;20068;-69
2022/05/28 10:04:56;;;;;;;15.63;8.68;;;;;;;;;;6290409;28;20068;-70
2022/05/28 10:08:09;;;;;;;13.65;8.48;;;;;;;;;;6292888;28;20339;-70
2022/05/28 10:11:17;;;;;;;16.00;9.05;;;;;;;;;;6292817;28;20157;-70
2022/05/28 10:14:20;;;;;;;13.00;7.63;;;;;;;;;;6291742;28;20326;-70
2022/05/28 10:17:23;;;;;;;12.40;6.25;;;;;;;;;;6294647;28;20213;-70
2022/05/28 10:20:25;;;;;;;17.15;7.75;;;;;;;;;;6291289;28;20320;-71
2022/05/28 10:23:29;;;;;;;;;;;;;;;;;;6291933;28;20305;-71
2022/05/28 10:26:34;;;;;;;11.10;7.07;;;;;;;;;;6292917;28;19917;-71
2022/05/28 10:29:39;;;;;;;13.80;7.95;;;;;;;;;;6292543;28;20102;-70
2022/05/28 10:32:46;;;;;;;13.32;8.32;;;;;;;;;;6299925;28;20057;-71
2022/05/28 10:35:48;;;;;;;12.05;7.22;;;;;;;;;;6296400;28;20094;-71
2022/05/28 10:38:52;;;;;;;11.90;7.18;;;;;;;;;;6300643;28;20355;-70
2022/05/28 10:41:54;;;;;;;10.82;7.57;;;;;;;;;;6297539;28;20336;-72
2022/05/28 10:44:56;;;;;;;11.98;8.15;;;;;;;;;;6293370;28;20044;-71
2022/05/28 10:48:09;;;;;;;16.73;9.15;;;;;;;;;;6293988;28;20059;-71
2022/05/28 10:51:18;;;;;;;12.77;8.68;;;;;;;;;;6291104;28;20376;-70
2022/05/28 10:54:48;;;;;;;11.38;7.32;;;;;;;;;;6297601;28;20132;-70
2022/05/28 10:58:09;;;;;;;20.08;11.35;;;;;;;;;;6291770;28;20273;-70
2022/05/28 11:01:24;;;;;;;14.95;7.82;;;;;;;;;;6294971;28;20192;-70
2022/05/28 11:04:48;;;;;;;14.40;7.55;;;;;;;;;;6295497;28;20232;-71
2022/05/28 11:07:53;;;;;;;12.68;7.18;;;;;;;;;;6293443;28;20322;-69
2022/05/28 11:11:13;;;;;;;9.98;7.57;;;;;;;;;;6295516;28;20159;-71
2022/05/28 11:14:30;;;;;;;11.43;8.18;;;;;;;;;;6298153;28;20053;-72
2022/05/28 11:17:48;;;;;;;12.35;6.35;;;;;;;;;;6300713;28;20053;-72
2022/05/28 11:20:55;;;;;;;11.40;7.70;;;;;;;;;;6299460;28;20086;-72
2022/05/28 11:24:13;;;;;;;9.75;7.78;;;;;;;;;;6296022;28;20048;-72
2022/05/28 11:27:36;;;;;;;13.02;7.15;;;;;;;;;;6296884;28;20052;-71
2022/05/28 11:30:40;;;;;;;9.05;5.65;;;;;;;;;;6294414;28;20111;-72
2022/05/28 11:33:44;;;;;;;7.85;5.47;;;;;;;;;;6301625;28;20361;-72
2022/05/28 11:36:49;;;;;;;13.90;6.35;;;;;;;;;;6300096;28;20093;-72
2022/05/28 11:39:57;;;;;;;13.52;7.15;;;;;;;;;;6299261;28;20280;-74
2022/05/28 11:43:03;;;;;;;9.07;5.85;;;;;;;;;;6301125;28;20094;-73
2022/05/28 11:46:13;;;;;;;11.43;6.43;;;;;;;;;;6294240;28;20044;-76
2022/05/28 11:52:41;;;;;;;9.32;7.00;;;;;;;;;;6292951;28;20049;-72
2022/05/28 11:55:44;;;;;;;10.07;5.18;;;;;;;;;;6293781;28;20053;-73
2022/05/28 11:58:49;;;;;;;9.95;5.38;;;;;;;;;;6301514;28;20052;-74
2022/05/28 12:01:55;;;;;;;10.35;5.45;;;;;;;;;;6297140;28;20040;-74
2022/05/28 12:04:57;;;;;;;9.60;5.05;;;;;;;;;;6292579;28;20059;-74
2022/05/28 12:08:02;;;;;;;9.55;5.40;;;;;;;;;;6291023;28;20061;-75
2022/05/28 12:11:06;;;;;;;11.07;5.85;;;;;;;;;;6288843;28;20048;-75
2022/05/28 12:14:22;;;;;;;8.90;4.97;;;;;;;;;;6297253;28;20044;-74
2022/05/28 12:17:27;;;;;;;10.45;5.22;;;;;;;;;;6293653;28;20049;-74
2022/05/28 12:20:31;;;;;;;11.48;4.82;;;;;;;;;;6292165;28;20052;-74
2022/05/28 12:23:36;;;;;;;6.68;4.70;;;;;;;;;;6290816;28;20320;-74
2022/05/28 12:30:01;;;;;;;9.88;5.15;;;;;;;;;;6290350;28;20943;-72
2022/05/28 12:33:02;;;;;;;9.30;5.95;;;;;;;;;;6292718;28;20044;-72
2022/05/28 12:36:10;;;;;;;12.93;6.47;;;;;;;;;;6289810;28;20086;-71
2022/05/28 12:39:29;;;;;;;9.25;4.90;;;;;;;;;;6290743;28;20082;-72
2022/05/28 12:42:31;;;;;;;10.93;4.95;;;;;;;;;;6289155;28;20062;-72
2022/05/28 12:45:38;;;;;;;10.35;5.10;;;;;;;;;;6294341;28;20132;-72
2022/05/28 12:48:40;;;;;;;6.07;4.15;;;;;;;;;;6290654;28;20113;-72
2022/05/28 12:52:09;;;;;;;5.95;4.30;;;;;;;;;;6293355;28;20271;-72
2022/05/28 12:55:31;;;;;;;9.80;4.38;;;;;;;;;;6292449;28;20104;-72
2022/05/28 12:58:36;;;;;;;12.07;4.28;;;;;;;;;;6294547;28;20247;-71
2022/05/28 13:01:50;;;;;;;8.18;4.47;;;;;;;;;;6293975;28;20253;-74
2022/05/28 13:04:55;;;;;;;6.40;4.20;;;;;;;;;;6290760;28;20319;-71
2022/05/28 13:08:00;;;;;;;6.63;3.85;;;;;;;;;;6292316;28;20050;-72
2022/05/28 13:11:06;;;;;;;9.15;4.60;;;;;;;;;;6290421;28;20179;-71
2022/05/28 13:14:28;;;;;;;7.53;5.03;;;;;;;;;;6297551;28;20112;-76
2022/05/28 13:17:54;;;;;;;11.35;5.20;;;;;;;;;;6290473;28;20099;-72
2022/05/28 13:21:29;;;;;;;11.48;4.90;;;;;;;;;;6293969;28;20278;-73
2022/05/28 13:25:07;;;;;;;9.48;4.68;;;;;;;;;;6281740;28;20294;-74
2022/05/28 13:28:39;;;;;;;8.38;4.75;;;;;;;;;;6283528;28;20102;-74
2022/05/28 13:31:41;;;;;;;;;;;;;;;;;;6292041;27;20060;-74
2022/05/28 13:34:44;;;;;;;7.05;4.82;;;;;;;;;;6289315;27;20107;-72
2022/05/28 13:37:53;;;;;;;13.93;5.03;;;;;;;;;;6288585;28;20064;-75
2022/05/28 13:40:56;;;;;;;8.13;5.03;;;;;;;;;;6289296;28;20313;-69
2022/05/28 13:44:04;;;;;;;14.07;4.88;;;;;;;;;;6287753;28;20048;-71
2022/05/28 13:47:06;;;;;;;36.05;24.02;;;;;;;;;;6291839;27;20056;-73
2022/05/28 13:50:11;;;;;;;15.02;8.82;;;;;;;;;;6289093;28;20040;-71
2022/05/28 13:53:15;;;;;;;7.35;4.63;;;;;;;;;;6288824;27;20059;-73
2022/05/28 13:56:21;;;;;;;7.95;4.70;;;;;;;;;;6267619;27;20052;-71
2022/05/28 13:59:31;;;;;;;9.57;4.90;;;;;;;;;;6291212;28;20282;-72
2022/05/28 14:02:32;;;;;;;7.72;3.80;;;;;;;;;;6291475;28;20109;-72
2022/05/28 14:05:40;;;;;;;14.65;4.80;;;;;;;;;;6292319;27;20224;-73
2022/05/28 14:08:43;;;;;;;6.88;5.00;;;;;;;;;;6291139;28;20057;-73
2022/05/28 14:11:48;;;;;;;11.40;4.63;;;;;;;;;;6288938;27;20048;-70
2022/05/28 14:14:49;;;;;;;6.80;4.30;;;;;;;;;;6289540;28;20167;-71
2022/05/28 14:17:51;;;;;;;12.00;5.63;;;;;;;;;;6288930;27;20212;-72
2022/05/28 14:20:55;;;;;;;;;;;;;;;;;;6289283;28;20099;-73
2022/05/28 14:23:57;;;;;;;8.40;4.65;;;;;;;;;;6290310;28;19924;-74
2022/05/28 14:27:01;;;;;;;10.45;5.03;;;;;;;;;;6305219;28;20060;-73
2022/05/28 14:30:06;;;;;;;9.70;4.75;;;;;;;;;;6295659;28;20052;-71
2022/05/28 14:33:12;;;;;;;7.07;4.40;;;;;;;;;;6301541;28;20366;-70
2022/05/28 14:36:28;;;;;;;10.00;5.25;;;;;;;;;;6310203;28;20090;-70
2022/05/28 14:39:31;;;;;;;10.40;4.57;;;;;;;;;;6326198;28;20044;-70
2022/05/28 14:42:34;;;;;;;7.63;4.85;;;;;;;;;;6318368;28;20200;-71
2022/05/28 14:45:39;;;;;;;9.88;4.90;;;;;;;;;;6318067;28;20048;-71
2022/05/28 14:48:41;;;;;;;9.85;4.80;;;;;;;;;;6315959;28;20331;-69
2022/05/28 14:51:44;;;;;;;10.18;5.15;;;;;;;;;;6316056;28;20266;-71
2022/05/28 14:54:50;;;;;;;8.15;5.32;;;;;;;;;;6318561;28;20058;-70
2022/05/28 14:58:02;;;;;;;20.92;6.53;;;;;;;;;;6313690;28;20111;-69
2022/05/28 15:01:06;;;;;;;18.80;5.70;;;;;;;;;;6316755;28;20142;-73
2022/05/28 15:04:12;;;;;;;16.85;5.93;;;;;;;;;;6318194;28;20059;-73
2022/05/28 15:07:24;;;;;;;16.02;5.68;;;;;;;;;;6313759;28;20110;-70
2022/05/28 15:10:29;;;;;;;13.65;5.85;;;;;;;;;;6316809;28;20130;-72
2022/05/28 15:13:32;;;;;;;16.05;5.53;;;;;;;;;;6314167;28;20056;-72
2022/05/28 15:16:34;;;;;;;18.35;5.97;;;;;;;;;;6317667;28;20059;-70
2022/05/28 15:19:36;;;;;;;16.53;5.30;;;;;;;;;;6320218;28;20085;-69
2022/05/28 15:22:39;;;;;;;16.90;5.70;;;;;;;;;;6317206;28;20044;-70
2022/05/28 15:25:41;;;;;;;13.68;4.97;;;;;;;;;;6315713;28;20060;-70
2022/05/28 15:28:43;;;;;;;18.77;4.80;;;;;;;;;;6317109;28;20111;-70
2022/05/28 15:31:44;;;;;;;13.57;5.00;;;;;;;;;;6317388;28;20045;-67
2022/05/28 15:34:48;;;;;;;13.55;4.25;;;;;;;;;;6315080;28;20142;-70
2022/05/28 15:37:53;;;;;;;16.73;4.35;;;;;;;;;;6312707;28;20126;-70
2022/05/28 15:40:58;;;;;;;21.58;4.82;;;;;;;;;;6318206;28;20275;-70
2022/05/28 15:44:01;;;;;;;19.27;4.05;;;;;;;;;;6311057;28;20071;-70
2022/05/28 15:47:03;;;;;;;26.23;5.13;;;;;;;;;;6313819;28;20059;-70
2022/05/28 15:50:05;;;;;;;13.48;3.97;;;;;;;;;;6316129;28;20323;-70
2022/05/28 15:53:08;;;;;;;18.85;4.43;;;;;;;;;;6315884;28;20052;-71
2022/05/28 15:56:11;;;;;;;14.85;4.68;;;;;;;;;;6315526;28;20067;-73
2022/05/28 15:59:15;;;;;;;66.65;36.00;;;;;;;;;;6318909;28;20052;-71
2022/05/28 16:02:22;;;;;;;22.60;9.23;;;;;;;;;;6317357;28;20052;-71
2022/05/28 16:05:23;;;;;;;46.55;23.90;;;;;;;;;;6313680;28;20059;-72
2022/05/28 16:11:42;;;;;;;18.98;3.85;;;;;;;;;;6313027;28;20112;-71
2022/05/28 16:14:44;;;;;;;10.65;3.28;;;;;;;;;;6314266;28;20055;-71
2022/05/28 16:17:46;;;;;;;18.08;4.82;;;;;;;;;;6318351;28;20063;-71
2022/05/28 16:20:47;;;;;;;18.67;4.60;;;;;;;;;;6315586;28;20331;-70
2022/05/28 16:23:50;;;;;;;9.80;4.03;;;;;;;;;;6316502;28;20048;-71
2022/05/28 16:26:52;;;;;;;9.07;3.90;;;;;;;;;;6314653;28;20060;-71
2022/05/28 16:29:54;;;;;;;14.27;4.00;;;;;;;;;;6315060;28;20141;-71
2022/05/28 16:32:55;;;;;;;19.98;4.35;;;;;;;;;;6312350;28;20216;-70
2022/05/28 16:35:57;;;;;;;8.27;4.18;;;;;;;;;;6314115;28;20059;-71
2022/05/28 16:39:00;;;;;;;12.82;4.28;;;;;;;;;;6317638;28;20047;-71
2022/05/28 16:42:02;;;;;;;;;;;;;;;;;;6316100;28;20063;-71
2022/05/28 16:45:05;;;;;;;19.85;4.82;;;;;;;;;;6318523;28;19916;-71
2022/05/28 16:48:08;;;;;;;11.88;3.70;;;;;;;;;;6317284;28;20250;-71
2022/05/28 16:51:09;;;;;;;12.30;4.53;;;;;;;;;;6318057;28;20045;-71
2022/05/28 16:54:12;;;;;;;9.65;3.08;;;;;;;;;;6317422;28;20478;-71
2022/05/28 16:57:14;;;;;;;12.60;4.10;;;;;;;;;;6312559;28;20052;-70
2022/05/28 17:00:17;;;;;;;18.27;4.40;;;;;;;;;;6314624;28;20052;-70
2022/05/28 17:03:19;;;;;;;19.58;4.30;;;;;;;;;;6315651;28;20055;-71
2022/05/28 17:06:21;;;;;;;14.20;4.22;;;;;;;;;;6314139;28;20059;-70
2022/05/28 17:09:24;;;;;;;11.07;4.45;;;;;;;;;;6314072;28;20146;-71
2022/05/28 17:12:27;;;;;;;12.45;4.85;;;;;;;;;;6315940;28;20061;-71
2022/05/28 17:15:29;;;;;;;16.73;4.35;;;;;;;;;;6311284;28;20048;-71
2022/05/28 17:18:31;;;;;;;10.15;3.78;;;;;;;;;;6314083;28;20040;-70
2022/05/28 17:21:36;;;;;;;11.07;4.13;;;;;;;;;;6309918;28;20324;-70
2022/05/28 17:24:40;;;;;;;12.48;4.00;;;;;;;;;;6315289;28;20046;-69
2022/05/28 17:27:42;;;;;;;11.48;3.90;;;;;;;;;;6315988;28;20297;-70
2022/05/28 17:30:44;;;;;;;17.40;4.68;;;;;;;;;;6315540;28;20112;-70
2022/05/28 17:33:46;;;;;;;12.25;3.78;;;;;;;;;;6314246;28;20040;-71
2022/05/28 17:36:48;;;;;;;10.70;4.33;;;;;;;;;;6313370;28;20364;-70
2022/05/28 17:39:51;;;;;;;10.52;3.50;;;;;;;;;;6316268;28;20040;-70
2022/05/28 17:42:55;;;;;;;13.07;3.50;;;;;;;;;;6312544;28;20339;-71
2022/05/28 17:45:57;;;;;;;11.13;3.78;;;;;;;;;;6314586;28;20050;-70
2022/05/28 17:48:58;;;;;;;10.32;3.90;;;;;;;;;;6315384;28;20228;-71
2022/05/28 17:52:00;;;;;;;12.40;4.15;;;;;;;;;;6314430;28;20205;-72
2022/05/28 17:55:03;;;;;;;16.77;4.28;;;;;;;;;;6317970;28;20049;-69
2022/05/28 17:58:05;;;;;;;;;;;;;;;;;;6315242;28;20055;-69
2022/05/28 18:01:07;;;;;;;12.50;3.28;;;;;;;;;;6311148;27;19916;-70
2022/05/28 18:04:10;;;;;;;6.37;3.53;;;;;;;;;;6321538;28;20335;-70
2022/05/28 18:07:12;;;;;;;;;;;;;;;;;;6316894;28;21343;-69
2022/05/28 18:10:15;;;;;;;5.93;2.80;;;;;;;;;;6320117;28;20052;-69
2022/05/28 18:13:17;;;;;;;7.68;3.28;;;;;;;;;;6325665;28;20048;-69
2022/05/28 18:16:22;;;;;;;10.43;3.08;;;;;;;;;;6323256;28;20341;-69
2022/05/28 18:19:27;;;;;;;6.25;2.47;;;;;;;;;;6327478;28;20060;-69
2022/05/28 18:22:29;;;;;;;7.35;2.80;;;;;;;;;;6325268;28;20135;-67
2022/05/28 18:25:32;;;;;;;10.90;2.95;;;;;;;;;;6324736;28;20071;-68
2022/05/28 18:28:33;;;;;;;6.07;2.72;;;;;;;;;;6326882;28;20047;-70